Time;durP1;ratioP1;P1;durP2;ratioP2;P2;SDS_P1;SDS_P2;PMS_P1;PMS_P2;Temp;Humidity;BMP_temperature;BMP_pressure;BME280_temperature;BME280_humidity;BME280_pressure;Samples;Min_cycle;Max_cycle;Signal;HPM_P1;HPM_P2
2022/10/26 00:02:15;;;;;;;1.88;1.77;;;15.40;99.90;;;;;;5054309;28;20225;-77
2022/10/26 00:04:42;;;;;;;1.80;1.70;;;15.50;99.90;;;;;;5057678;28;20225;-77
2022/10/26 00:07:09;;;;;;;1.50;1.40;;;15.40;99.90;;;;;;5047529;28;20215;-77
2022/10/26 00:09:37;;;;;;;1.48;1.42;;;15.40;99.90;;;;;;5050132;28;20202;-77
2022/10/26 00:12:04;;;;;;;1.48;1.38;;;15.40;99.90;;;;;;5043992;28;20198;-77
2022/10/26 00:14:31;;;;;;;1.60;1.50;;;15.40;99.90;;;;;;5049459;28;20214;-77
2022/10/26 00:17:00;;;;;;;1.48;1.38;;;15.40;99.90;;;;;;5052921;28;20219;-77
2022/10/26 00:19:27;;;;;;;1.60;1.50;;;15.40;99.90;;;;;;5051024;28;20807;-77
2022/10/26 00:21:54;;;;;;;1.80;1.70;;;15.40;99.90;;;;;;5049188;28;20242;-77
2022/10/26 00:24:21;;;;;;;1.50;1.40;;;15.40;99.90;;;;;;5050446;28;20198;-77
2022/10/26 00:26:48;;;;;;;1.88;1.35;;;15.40;99.90;;;;;;5052099;28;20237;-77
2022/10/26 00:29:17;;;;;;;1.55;1.45;;;15.30;99.90;;;;;;5049856;28;20202;-77
2022/10/26 00:31:44;;;;;;;2.13;1.70;;;15.30;99.90;;;;;;5051162;28;20220;-77
2022/10/26 00:34:13;;;;;;;1.58;1.48;;;15.30;99.90;;;;;;5052416;28;20191;-77
2022/10/26 00:36:40;;;;;;;1.52;1.42;;;15.30;99.90;;;;;;5051347;28;20237;-77
2022/10/26 00:39:07;;;;;;;1.60;1.50;;;15.30;99.90;;;;;;5056569;28;20199;-77
2022/10/26 00:41:34;;;;;;;1.92;1.60;;;15.20;99.90;;;;;;5051034;28;20225;-76
2022/10/26 00:44:22;;;;;;;2.15;1.60;;;15.20;99.90;;;;;;5051344;28;20731;-77
2022/10/26 00:46:49;;;;;;;1.50;1.40;;;15.20;99.90;;;;;;5049587;28;20222;-77
2022/10/26 00:49:20;;;;;;;1.70;1.60;;;15.20;99.90;;;;;;5051796;28;20677;-77
2022/10/26 00:51:51;;;;;;;2.28;1.77;;;15.20;99.90;;;;;;5049043;28;20218;-76
2022/10/26 00:54:20;;;;;;;1.60;1.50;;;15.10;99.90;;;;;;5051203;28;20206;-77
2022/10/26 00:56:50;;;;;;;1.80;1.70;;;15.10;99.90;;;;;;5051078;28;20238;-77
2022/10/26 00:59:18;;;;;;;1.67;1.58;;;15.00;99.90;;;;;;5053727;28;20200;-77
2022/10/26 01:01:47;;;;;;;1.70;1.60;;;15.00;99.90;;;;;;5050764;28;20231;-76
2022/10/26 01:04:15;;;;;;;1.73;1.63;;;15.00;99.90;;;;;;5051190;28;20668;-76
2022/10/26 01:06:44;;;;;;;1.75;1.65;;;15.00;99.90;;;;;;5047635;28;20238;-77
2022/10/26 01:09:13;;;;;;;1.83;1.73;;;15.00;99.90;;;;;;5051840;28;20599;-77
2022/10/26 01:11:40;;;;;;;1.30;1.30;;;15.00;99.90;;;;;;5047968;28;20223;-76
2022/10/26 01:14:10;;;;;;;1.50;1.40;;;15.00;99.90;;;;;;5048899;28;20203;-77
2022/10/26 01:16:59;;;;;;;1.33;1.33;;;15.00;99.90;;;;;;5048676;28;20215;-77
2022/10/26 01:20:17;;;;;;;1.70;1.60;;;15.00;99.90;;;;;;5053487;28;20230;-77
2022/10/26 01:22:51;;;;;;;1.85;1.75;;;15.00;99.90;;;;;;5024185;28;20711;-77
2022/10/26 01:25:39;;;;;;;1.60;1.50;;;15.00;99.90;;;;;;5051646;28;20221;-78
2022/10/26 01:28:20;;;;;;;1.63;1.52;;;15.00;99.90;;;;;;5049079;28;20960;-77
2022/10/26 01:30:48;;;;;;;1.70;1.60;;;15.00;99.90;;;;;;5047889;28;20225;-77
2022/10/26 01:33:31;;;;;;;1.45;1.35;;;15.00;99.90;;;;;;5054101;28;20225;-78
2022/10/26 01:36:05;;;;;;;1.60;1.50;;;14.90;99.90;;;;;;5054356;28;20215;-77
2022/10/26 01:38:40;;;;;;;1.50;1.40;;;15.00;99.90;;;;;;5045235;28;20226;-77
2022/10/26 01:41:13;;;;;;;1.95;1.85;;;15.00;99.90;;;;;;5051544;28;20233;-77
2022/10/26 01:43:46;;;;;;;1.50;1.40;;;15.00;99.90;;;;;;5048766;28;20218;-77
2022/10/26 01:46:16;;;;;;;1.42;1.40;;;15.00;99.90;;;;;;5049224;28;20223;-77
2022/10/26 01:48:45;;;;;;;1.30;1.20;;;15.10;99.90;;;;;;5047202;28;20709;-76
2022/10/26 01:51:14;;;;;;;1.60;1.50;;;15.00;99.90;;;;;;5047070;28;20218;-77
2022/10/26 01:53:45;;;;;;;1.70;1.60;;;15.00;99.90;;;;;;5049366;28;20650;-77
2022/10/26 01:56:18;;;;;;;1.25;1.17;;;15.00;99.90;;;;;;5044168;28;20234;-76
2022/10/26 01:59:09;;;;;;;2.40;1.67;;;15.00;99.90;;;;;;5048508;28;20666;-77
2022/10/26 02:02:11;;;;;;;1.58;1.48;;;15.00;99.90;;;;;;5046213;28;20700;-77
2022/10/26 02:04:44;;;;;;;2.03;1.70;;;14.90;99.90;;;;;;5050646;28;20194;-77
2022/10/26 02:07:20;;;;;;;1.55;1.45;;;14.90;99.90;;;;;;5054268;28;20214;-77
2022/10/26 02:09:56;;;;;;;1.95;1.75;;;14.90;99.90;;;;;;5047335;28;20708;-76
2022/10/26 02:12:33;;;;;;;2.28;1.40;;;14.90;99.90;;;;;;5045684;28;20198;-76
2022/10/26 02:15:07;;;;;;;1.30;1.30;;;14.80;99.90;;;;;;5046965;28;20226;-77
2022/10/26 02:17:45;;;;;;;2.17;1.90;;;14.80;99.90;;;;;;5045397;28;20688;-77
2022/10/26 02:20:17;;;;;;;1.85;1.75;;;14.80;99.90;;;;;;5046995;28;20210;-77
2022/10/26 02:22:49;;;;;;;1.50;1.40;;;14.80;99.90;;;;;;5053667;28;20226;-77
2022/10/26 02:25:20;;;;;;;1.73;1.63;;;14.80;99.90;;;;;;5047826;28;20259;-77
2022/10/26 02:27:53;;;;;;;1.70;1.60;;;14.80;99.90;;;;;;5053912;28;20215;-77
2022/10/26 02:30:20;;;;;;;1.77;1.67;;;14.80;99.90;;;;;;5052711;28;20215;-77
2022/10/26 02:32:52;;;;;;;1.80;1.70;;;14.80;99.90;;;;;;5048971;28;20211;-77
2022/10/26 02:35:24;;;;;;;2.60;1.70;;;14.70;99.90;;;;;;5048525;28;20215;-76
2022/10/26 02:37:54;;;;;;;1.60;1.50;;;14.70;99.90;;;;;;5048798;28;20229;-77
2022/10/26 02:40:25;;;;;;;1.50;1.40;;;14.70;99.90;;;;;;5047125;28;20234;-76
2022/10/26 02:42:53;;;;;;;3.95;1.77;;;14.70;99.90;;;;;;5048141;28;20229;-77
2022/10/26 02:45:24;;;;;;;1.55;1.35;;;14.60;99.90;;;;;;5046221;28;20210;-77
2022/10/26 02:47:54;;;;;;;1.80;1.70;;;14.60;99.90;;;;;;5047731;28;20600;-77
2022/10/26 02:50:27;;;;;;;1.70;1.60;;;14.60;99.90;;;;;;5049362;28;20234;-77
2022/10/26 02:53:02;;;;;;;1.70;1.60;;;14.60;99.90;;;;;;5047786;28;20195;-77
2022/10/26 02:55:34;;;;;;;1.85;1.75;;;14.60;99.90;;;;;;5044443;28;20651;-76
2022/10/26 02:58:04;;;;;;;1.63;1.52;;;14.60;99.90;;;;;;5048201;28;20529;-77
2022/10/26 03:00:32;;;;;;;1.55;1.45;;;14.60;99.90;;;;;;5046948;28;20225;-77
2022/10/26 03:03:02;;;;;;;1.60;1.50;;;14.50;99.90;;;;;;5048124;28;20225;-77
2022/10/26 03:05:31;;;;;;;1.70;1.60;;;14.50;99.90;;;;;;5047287;28;20223;-76
2022/10/26 03:07:59;;;;;;;1.90;1.80;;;14.40;99.90;;;;;;5047652;28;20207;-77
2022/10/26 03:10:27;;;;;;;1.80;1.70;;;14.40;99.90;;;;;;5044737;28;20710;-77
2022/10/26 03:12:54;;;;;;;1.50;1.40;;;14.50;99.90;;;;;;5048173;28;20198;-77
2022/10/26 03:15:21;;;;;;;2.15;1.70;;;14.50;99.90;;;;;;5046854;28;20226;-77
2022/10/26 03:17:48;;;;;;;1.75;1.65;;;14.50;99.90;;;;;;5047082;28;20601;-77
2022/10/26 03:20:17;;;;;;;2.10;1.83;;;14.50;99.90;;;;;;5045911;28;20721;-77
2022/10/26 03:22:47;;;;;;;1.73;1.63;;;14.50;99.90;;;;;;5061753;28;20218;-77
2022/10/26 03:25:14;;;;;;;1.60;1.50;;;14.60;99.90;;;;;;5048907;28;20218;-77
2022/10/26 03:27:42;;;;;;;1.73;1.63;;;14.60;99.90;;;;;;5047579;28;20254;-77
2022/10/26 03:30:09;;;;;;;1.50;1.40;;;14.60;99.90;;;;;;5042584;28;20804;-77
2022/10/26 03:32:37;;;;;;;1.63;1.52;;;14.60;99.90;;;;;;5048597;28;20199;-77
2022/10/26 03:35:05;;;;;;;1.30;1.25;;;14.60;99.90;;;;;;5049809;28;20570;-77
2022/10/26 03:37:33;;;;;;;1.92;1.60;;;14.60;99.90;;;;;;5046907;28;20241;-76
2022/10/26 03:40:00;;;;;;;1.60;1.50;;;14.60;99.90;;;;;;5049274;28;20651;-77
2022/10/26 03:42:27;;;;;;;1.60;1.50;;;14.50;99.90;;;;;;5050668;28;20203;-77
2022/10/26 03:44:55;;;;;;;1.52;1.42;;;14.50;99.90;;;;;;5042758;28;20218;-76
2022/10/26 03:47:22;;;;;;;1.80;1.70;;;14.50;99.90;;;;;;5050394;28;20215;-77
2022/10/26 03:49:49;;;;;;;1.45;1.35;;;14.50;99.90;;;;;;5049128;28;20604;-76
2022/10/26 03:52:16;;;;;;;1.45;1.35;;;14.50;99.90;;;;;;5051757;28;20202;-77
2022/10/26 03:54:44;;;;;;;2.00;1.90;;;14.50;99.90;;;;;;5047449;28;20224;-77
2022/10/26 03:57:11;;;;;;;1.45;1.35;;;14.50;99.90;;;;;;5048830;28;20223;-77
2022/10/26 03:59:38;;;;;;;1.40;1.40;;;14.50;99.90;;;;;;5049048;28;20649;-76
2022/10/26 04:02:05;;;;;;;1.70;1.60;;;14.60;99.90;;;;;;5047670;28;20195;-76
2022/10/26 04:04:33;;;;;;;1.88;1.77;;;14.50;99.90;;;;;;5041681;28;20226;-77
2022/10/26 04:07:00;;;;;;;1.63;1.52;;;14.50;99.90;;;;;;5052875;28;20222;-77
2022/10/26 04:09:27;;;;;;;1.60;1.48;;;14.50;99.90;;;;;;5052548;28;20194;-77
2022/10/26 04:11:55;;;;;;;1.70;1.60;;;14.50;99.90;;;;;;5053872;28;20217;-77
2022/10/26 04:14:22;;;;;;;1.60;1.50;;;14.50;99.90;;;;;;5048962;28;20202;-77
2022/10/26 04:16:49;;;;;;;1.70;1.60;;;14.40;99.90;;;;;;5045445;28;20222;-77
2022/10/26 04:19:16;;;;;;;1.95;1.85;;;14.30;99.90;;;;;;5048639;28;20191;-77
2022/10/26 04:21:43;;;;;;;2.78;1.90;;;14.30;99.90;;;;;;5046611;28;20219;-77
2022/10/26 04:24:11;;;;;;;1.70;1.60;;;14.30;99.90;;;;;;5044435;28;20219;-77
2022/10/26 04:26:38;;;;;;;1.50;1.40;;;14.30;99.90;;;;;;5044877;28;20237;-76
2022/10/26 04:29:08;;;;;;;1.73;1.63;;;14.30;99.90;;;;;;5048815;28;20260;-77
2022/10/26 04:31:35;;;;;;;1.88;1.77;;;14.30;99.90;;;;;;5047204;28;20237;-77
2022/10/26 04:34:02;;;;;;;1.60;1.50;;;14.30;99.90;;;;;;5046393;28;20199;-77
2022/10/26 04:36:30;;;;;;;1.70;1.60;;;14.30;99.90;;;;;;5039484;28;20230;-76
2022/10/26 04:38:57;;;;;;;3.10;1.73;;;14.30;99.90;;;;;;5048426;28;20198;-77
2022/10/26 04:41:24;;;;;;;1.70;1.60;;;14.20;99.90;;;;;;5044788;28;20281;-77
2022/10/26 04:43:52;;;;;;;1.80;1.70;;;14.20;99.90;;;;;;5044143;28;20221;-77
2022/10/26 04:46:20;;;;;;;1.98;1.88;;;14.20;99.90;;;;;;5041013;28;20226;-77
2022/10/26 04:48:48;;;;;;;1.80;1.70;;;14.20;99.90;;;;;;5048869;28;20554;-76
2022/10/26 04:51:15;;;;;;;1.80;1.70;;;14.20;99.90;;;;;;5050100;28;20214;-77
2022/10/26 04:53:42;;;;;;;1.80;1.70;;;14.20;99.90;;;;;;5047166;28;20619;-77
2022/10/26 04:56:10;;;;;;;1.45;1.45;;;14.20;99.90;;;;;;5044144;28;20215;-78
2022/10/26 04:58:37;;;;;;;1.60;1.50;;;14.20;99.90;;;;;;5043811;28;20666;-77
2022/10/26 05:01:04;;;;;;;3.45;2.47;;;14.20;99.90;;;;;;5040317;28;20655;-78
2022/10/26 05:03:32;;;;;;;5.70;4.68;;;14.20;99.90;;;;;;5043918;28;20623;-78
2022/10/26 05:05:59;;;;;;;5.78;5.18;;;14.20;99.90;;;;;;5043722;28;20218;-78
2022/10/26 05:08:28;;;;;;;8.88;6.45;;;14.20;99.90;;;;;;5047119;28;20579;-78
2022/10/26 05:10:55;;;;;;;5.68;5.18;;;14.20;99.90;;;;;;5046614;28;20257;-78
2022/10/26 05:13:22;;;;;;;5.32;4.82;;;14.20;99.90;;;;;;5051571;28;20559;-77
2022/10/26 05:15:53;;;;;;;4.63;4.20;;;14.10;99.90;;;;;;5038639;28;20697;-77
2022/10/26 05:18:20;;;;;;;3.38;3.08;;;14.10;99.90;;;;;;5042322;28;20211;-77
2022/10/26 05:20:52;;;;;;;2.97;2.78;;;14.00;99.90;;;;;;5038694;28;20230;-76
2022/10/26 05:23:19;;;;;;;2.72;2.45;;;13.90;99.90;;;;;;5045011;28;20215;-77
2022/10/26 05:25:46;;;;;;;2.75;2.55;;;13.90;99.90;;;;;;5043516;28;20272;-77
2022/10/26 05:28:14;;;;;;;2.88;2.67;;;13.90;99.90;;;;;;5043163;28;20269;-78
2022/10/26 05:30:42;;;;;;;3.30;3.05;;;13.90;99.90;;;;;;5041136;28;20229;-77
2022/10/26 05:33:10;;;;;;;3.83;3.53;;;13.90;99.90;;;;;;5036518;28;20258;-77
2022/10/26 05:35:38;;;;;;;3.20;3.00;;;13.90;99.90;;;;;;5040057;28;20210;-78
2022/10/26 05:38:09;;;;;;;3.15;2.83;;;13.90;99.90;;;;;;5043688;28;20211;-77
2022/10/26 05:40:36;;;;;;;2.67;2.47;;;13.90;99.90;;;;;;5044081;28;20309;-77
2022/10/26 05:43:03;;;;;;;2.60;2.40;;;13.80;99.90;;;;;;5038045;28;20191;-77
2022/10/26 05:45:30;;;;;;;2.40;2.20;;;13.80;99.90;;;;;;5040767;28;20222;-79
2022/10/26 05:47:58;;;;;;;2.25;2.08;;;13.80;99.90;;;;;;5039537;28;20215;-79
2022/10/26 05:50:26;;;;;;;3.63;3.33;;;13.80;99.90;;;;;;5039901;28;20596;-78
2022/10/26 05:52:54;;;;;;;5.38;4.88;;;13.80;99.90;;;;;;5038734;28;20591;-77
2022/10/26 05:55:23;;;;;;;13.90;9.60;;;13.80;99.90;;;;;;5040963;28;20306;-79
2022/10/26 05:57:51;;;;;;;21.50;13.50;;;13.70;99.90;;;;;;5036797;28;20223;-78
2022/10/26 06:00:20;;;;;;;20.42;13.05;;;13.70;99.90;;;;;;5042597;28;20222;-79
2022/10/26 06:03:08;;;;;;;24.20;16.73;;;13.60;99.90;;;;;;5045104;28;20226;-77
2022/10/26 06:05:45;;;;;;;45.63;31.15;;;13.60;99.90;;;;;;5043201;28;20309;-77
2022/10/26 06:08:12;;;;;;;34.67;25.02;;;13.70;99.90;;;;;;5045936;28;20741;-77
2022/10/26 06:10:42;;;;;;;26.15;19.08;;;13.70;99.90;;;;;;5035992;28;20223;-78
2022/10/26 06:13:09;;;;;;;17.48;14.20;;;13.70;99.90;;;;;;5038523;28;20198;-77
2022/10/26 06:15:44;;;;;;;13.48;11.32;;;13.70;99.90;;;;;;5041853;28;20222;-79
2022/10/26 06:18:20;;;;;;;9.90;8.35;;;13.80;99.90;;;;;;5040819;28;20218;-77
2022/10/26 06:20:54;;;;;;;7.05;6.20;;;13.80;99.90;;;;;;5041392;28;20226;-78
2022/10/26 06:23:44;;;;;;;6.60;5.50;;;13.80;99.90;;;;;;5042227;28;20574;-78
2022/10/26 06:26:21;;;;;;;4.80;4.40;;;13.90;99.90;;;;;;5039309;28;20308;-77
2022/10/26 06:28:58;;;;;;;5.25;4.00;;;13.90;99.90;;;;;;5041928;28;20197;-77
2022/10/26 06:31:25;;;;;;;3.50;3.20;;;14.00;99.90;;;;;;5040833;28;20241;-78
2022/10/26 06:33:58;;;;;;;2.90;2.65;;;14.10;99.90;;;;;;5041092;28;20187;-77
2022/10/26 06:36:27;;;;;;;2.78;2.55;;;14.10;99.90;;;;;;5037926;28;20268;-78
2022/10/26 06:38:58;;;;;;;2.40;2.20;;;14.20;99.90;;;;;;5038593;28;20222;-77
2022/10/26 06:41:27;;;;;;;2.95;2.45;;;14.30;99.90;;;;;;5042668;28;20229;-77
2022/10/26 06:43:55;;;;;;;1.90;1.80;;;14.30;99.90;;;;;;5044773;28;20277;-77
2022/10/26 06:46:31;;;;;;;1.92;1.80;;;14.30;99.90;;;;;;5039715;28;20222;-78
2022/10/26 06:49:06;;;;;;;2.72;2.10;;;14.30;99.90;;;;;;5041041;28;20195;-79
2022/10/26 06:51:36;;;;;;;2.20;2.05;;;14.30;99.90;;;;;;5041241;28;20230;-77
2022/10/26 06:54:12;;;;;;;2.03;1.92;;;14.30;99.90;;;;;;5042224;28;20196;-77
2022/10/26 06:56:42;;;;;;;1.98;1.70;;;14.30;99.90;;;;;;5041374;28;20254;-77
2022/10/26 06:59:17;;;;;;;1.50;1.40;;;14.30;99.90;;;;;;5039264;28;20210;-77
2022/10/26 07:01:44;;;;;;;2.92;1.88;;;14.40;99.90;;;;;;5046616;28;20276;-75
2022/10/26 07:04:11;;;;;;;1.88;1.77;;;14.50;99.90;;;;;;5041608;28;20250;-75
2022/10/26 07:06:39;;;;;;;2.33;1.80;;;14.50;99.90;;;;;;5035784;28;20230;-76
2022/10/26 07:09:06;;;;;;;1.38;1.30;;;14.60;99.90;;;;;;5043315;28;20198;-76
2022/10/26 07:11:33;;;;;;;1.83;1.73;;;14.60;99.90;;;;;;5042244;28;20214;-76
2022/10/26 07:14:01;;;;;;;2.25;2.05;;;14.70;99.90;;;;;;5043155;28;20227;-76
2022/10/26 07:16:29;;;;;;;2.40;2.03;;;14.70;99.90;;;;;;5049835;28;20210;-75
2022/10/26 07:18:56;;;;;;;2.42;1.95;;;14.60;99.90;;;;;;5047015;28;20590;-74
2022/10/26 07:21:23;;;;;;;2.28;2.08;;;14.60;99.90;;;;;;5036962;28;20483;-75
2022/10/26 07:23:51;;;;;;;1.85;1.75;;;14.70;99.90;;;;;;5036357;28;20214;-74
2022/10/26 07:26:18;;;;;;;2.08;1.98;;;14.70;99.90;;;;;;5040413;28;20223;-74
2022/10/26 07:28:49;;;;;;;2.10;2.00;;;14.80;99.90;;;;;;5040414;28;20195;-75
2022/10/26 07:31:17;;;;;;;1.80;1.70;;;14.90;99.90;;;;;;5038320;28;20265;-76
2022/10/26 07:33:45;;;;;;;2.17;2.00;;;15.20;99.90;;;;;;5039607;28;20203;-75
2022/10/26 07:36:12;;;;;;;2.40;2.20;;;15.60;99.90;;;;;;5040407;28;20214;-75
2022/10/26 07:38:39;;;;;;;2.25;2.10;;;16.30;99.90;;;;;;5043896;28;20669;-75
2022/10/26 07:41:07;;;;;;;2.70;2.50;;;16.90;99.90;;;;;;5040501;28;20248;-75
2022/10/26 07:43:34;;;;;;;2.30;2.10;;;17.40;99.90;;;;;;5042001;28;20199;-75
2022/10/26 07:46:01;;;;;;;2.63;1.83;;;17.90;99.90;;;;;;5039749;28;20238;-76
2022/10/26 07:48:29;;;;;;;2.00;1.90;;;18.10;99.90;;;;;;5042463;28;20219;-75
2022/10/26 07:50:56;;;;;;;1.90;1.80;;;18.40;99.90;;;;;;5042141;28;20214;-75
2022/10/26 07:53:23;;;;;;;2.45;2.10;;;18.70;99.90;;;;;;5044039;28;20297;-76
2022/10/26 07:55:54;;;;;;;3.00;2.05;;;18.90;99.90;;;;;;5047531;28;20210;-75
2022/10/26 07:58:24;;;;;;;2.58;2.03;;;18.90;99.90;;;;;;5040398;28;20246;-75
2022/10/26 08:00:52;;;;;;;4.72;2.60;;;18.60;99.90;;;;;;5041752;28;20227;-76
2022/10/26 08:03:19;;;;;;;2.20;1.98;;;18.50;99.90;;;;;;5039813;28;20195;-76
2022/10/26 08:05:50;;;;;;;2.65;2.08;;;18.40;99.90;;;;;;5042896;28;20248;-76
2022/10/26 08:08:18;;;;;;;1.98;1.80;;;18.30;99.90;;;;;;5040011;28;20732;-75
2022/10/26 08:10:46;;;;;;;2.20;2.00;;;18.30;99.90;;;;;;5040625;28;20222;-75
2022/10/26 08:13:13;;;;;;;4.07;2.60;;;18.10;99.90;;;;;;5043506;28;20272;-75
2022/10/26 08:15:41;;;;;;;2.65;2.10;;;17.90;99.90;;;;;;5042547;28;20222;-76
2022/10/26 08:18:08;;;;;;;2.28;1.90;;;17.90;99.90;;;;;;5041101;28;20245;-78
2022/10/26 08:20:35;;;;;;;1.80;1.70;;;18.00;99.90;;;;;;5040959;28;20222;-75
2022/10/26 08:23:05;;;;;;;2.10;2.00;;;18.10;99.90;;;;;;5044204;28;20198;-75
2022/10/26 08:25:33;;;;;;;2.35;1.88;;;18.10;99.90;;;;;;5047343;28;20246;-76
2022/10/26 08:28:02;;;;;;;2.72;1.95;;;18.20;99.90;;;;;;5043325;28;20836;-76
2022/10/26 08:30:29;;;;;;;3.30;2.00;;;18.60;99.90;;;;;;5049138;28;20421;-75
2022/10/26 08:33:00;;;;;;;1.92;1.83;;;18.90;99.90;;;;;;5046546;28;20685;-75
2022/10/26 08:35:27;;;;;;;2.55;1.90;;;19.20;99.90;;;;;;5047967;28;20218;-76
2022/10/26 08:37:54;;;;;;;3.10;2.17;;;19.10;99.90;;;;;;5042857;28;20241;-75
2022/10/26 08:40:26;;;;;;;3.30;1.92;;;18.80;99.90;;;;;;5046276;28;20860;-75
2022/10/26 08:43:01;;;;;;;2.53;1.70;;;18.40;99.90;;;;;;5044054;28;20210;-75
2022/10/26 08:45:32;;;;;;;3.17;2.03;;;18.30;99.90;;;;;;5043581;28;20728;-75
2022/10/26 08:48:03;;;;;;;4.20;2.10;;;18.40;99.90;;;;;;5050542;28;20211;-76
2022/10/26 08:50:33;;;;;;;2.00;1.77;;;18.60;99.90;;;;;;5052712;28;20226;-76
2022/10/26 08:53:06;;;;;;;2.47;1.77;;;18.90;99.90;;;;;;5044771;28;20199;-76
2022/10/26 08:55:42;;;;;;;2.22;1.90;;;19.00;99.90;;;;;;5046493;28;20262;-75
2022/10/26 08:58:15;;;;;;;4.63;1.92;;;18.80;99.90;;;;;;5047679;28;20215;-76
2022/10/26 09:00:43;;;;;;;5.53;3.80;;;18.60;99.90;;;;;;5044636;28;20227;-76
2022/10/26 09:03:14;;;;;;;7.40;6.05;;;18.40;99.90;;;;;;5045222;28;20241;-75
2022/10/26 09:05:55;;;;;;;5.93;3.90;;;18.40;99.90;;;;;;5043500;28;20294;-76
2022/10/26 09:08:31;;;;;;;5.88;3.35;;;18.70;99.90;;;;;;5042574;28;20234;-75
2022/10/26 09:11:08;;;;;;;3.15;2.40;;;19.40;99.90;;;;;;5043782;28;20218;-76
2022/10/26 09:13:46;;;;;;;3.17;2.40;;;19.80;99.90;;;;;;5046056;28;20207;-75
2022/10/26 09:16:23;;;;;;;2.97;2.00;;;20.20;99.90;;;;;;5040848;28;20259;-75
2022/10/26 09:19:00;;;;;;;2.20;2.00;;;20.40;99.90;;;;;;5043841;28;20290;-75
2022/10/26 09:21:38;;;;;;;6.43;2.40;;;20.40;99.90;;;;;;5041279;28;20242;-76
2022/10/26 09:24:13;;;;;;;2.15;1.70;;;20.60;99.90;;;;;;5040389;28;20195;-75
2022/10/26 09:26:53;;;;;;;3.20;2.17;;;20.90;99.90;;;;;;5044803;28;20287;-75
2022/10/26 09:29:24;;;;;;;2.03;1.80;;;21.30;99.90;;;;;;5044265;28;20190;-76
2022/10/26 09:31:51;;;;;;;4.15;2.00;;;21.50;99.90;;;;;;5044733;28;20191;-75
2022/10/26 09:34:27;;;;;;;2.70;1.90;;;21.80;99.90;;;;;;5040428;28;20623;-75
2022/10/26 09:36:56;;;;;;;3.80;2.13;;;22.10;99.90;;;;;;5039107;28;20958;-77
2022/10/26 09:39:31;;;;;;;5.88;1.80;;;22.20;99.90;;;;;;5036456;28;20207;-78
2022/10/26 09:42:06;;;;;;;3.67;2.03;;;22.30;99.90;;;;;;5042724;28;20197;-78
2022/10/26 09:44:42;;;;;;;4.10;1.90;;;22.40;99.90;;;;;;5037809;28;20214;-78
2022/10/26 09:47:18;;;;;;;4.75;2.00;;;22.60;99.90;;;;;;5045936;28;20219;-77
2022/10/26 09:49:49;;;;;;;4.00;2.00;;;22.90;99.90;;;;;;5045202;28;20252;-77
2022/10/26 09:52:17;;;;;;;1.90;1.70;;;22.80;99.90;;;;;;5047480;28;20199;-77
2022/10/26 09:54:44;;;;;;;2.17;1.55;;;22.70;99.90;;;;;;5046195;28;20612;-76
2022/10/26 09:57:16;;;;;;;1.92;1.60;;;22.60;99.90;;;;;;5043688;28;20261;-76
2022/10/26 09:59:43;;;;;;;3.25;1.60;;;22.50;99.90;;;;;;5040600;28;20728;-77
2022/10/26 10:02:33;;;;;;;1.67;1.58;;;22.50;99.90;;;;;;5044520;28;20199;-77
2022/10/26 10:05:01;;;;;;;2.38;1.85;;;22.70;99.90;;;;;;5040315;28;20218;-76
2022/10/26 10:07:28;;;;;;;1.70;1.60;;;22.90;99.90;;;;;;5042551;28;20302;-77
2022/10/26 10:10:08;;;;;;;1.55;1.40;;;23.10;99.90;;;;;;5043172;28;20308;-77
2022/10/26 10:12:37;;;;;;;3.33;1.73;;;23.20;99.90;;;;;;5042756;28;20194;-77
2022/10/26 10:15:04;;;;;;;3.35;1.50;;;23.40;99.90;;;;;;5040624;28;20238;-76
2022/10/26 10:17:31;;;;;;;1.92;1.40;;;23.30;99.90;;;;;;5038626;28;20242;-76
2022/10/26 10:20:11;;;;;;;3.80;1.27;;;23.20;99.90;;;;;;5042850;28;20570;-78
2022/10/26 10:22:56;;;;;;;2.35;1.30;;;23.20;99.90;;;;;;5042842;28;20186;-77
2022/10/26 10:25:33;;;;;;;1.90;1.35;;;23.30;99.90;;;;;;5038444;28;20216;-77
2022/10/26 10:28:03;;;;;;;3.08;1.52;;;23.40;99.90;;;;;;5038230;28;20748;-75
2022/10/26 10:30:32;;;;;;;3.28;1.60;;;23.60;99.90;;;;;;5044410;28;20229;-75
2022/10/26 10:33:07;;;;;;;2.67;1.40;;;23.70;99.90;;;;;;5041753;28;20688;-76
2022/10/26 10:35:34;;;;;;;1.38;1.27;;;23.60;99.90;;;;;;5036675;28;20222;-76
2022/10/26 10:38:01;;;;;;;1.85;1.50;;;23.40;99.90;;;;;;5041995;28;20215;-76
2022/10/26 10:40:30;;;;;;;2.65;1.60;;;23.30;99.90;;;;;;5038309;28;20692;-76
2022/10/26 10:43:14;;;;;;;1.58;1.48;;;23.40;99.90;;;;;;5041742;28;20219;-75
2022/10/26 10:45:46;;;;;;;1.73;1.40;;;23.30;99.90;;;;;;5039111;28;20231;-77
2022/10/26 10:48:17;;;;;;;2.05;1.30;;;22.90;99.90;;;;;;5041279;28;20222;-76
2022/10/26 10:50:56;;;;;;;1.85;1.45;;;22.60;99.90;;;;;;5039284;28;20221;-77
2022/10/26 10:53:28;;;;;;;1.45;1.35;;;22.60;99.90;;;;;;5033857;28;20198;-76
2022/10/26 10:56:04;;;;;;;1.50;1.40;;;22.30;99.90;;;;;;5040194;28;20847;-75
2022/10/26 10:58:42;;;;;;;2.22;1.80;;;22.30;99.90;;;;;;5036004;28;20214;-76
2022/10/26 11:01:14;;;;;;;1.60;1.50;;;22.20;99.90;;;;;;5039998;28;20218;-76
2022/10/26 11:03:59;;;;;;;2.78;1.65;;;22.30;99.90;;;;;;5041126;28;20203;-75
2022/10/26 11:06:28;;;;;;;1.30;1.20;;;22.30;99.90;;;;;;5038957;28;20501;-76
2022/10/26 11:09:00;;;;;;;2.40;1.30;;;22.40;99.90;;;;;;5040847;28;20560;-77
2022/10/26 11:11:32;;;;;;;2.20;1.52;;;22.30;99.90;;;;;;5039024;28;20219;-76
2022/10/26 11:14:06;;;;;;;2.40;1.30;;;22.20;99.90;;;;;;5044592;28;20196;-76
2022/10/26 11:16:37;;;;;;;1.85;1.10;;;22.50;99.90;;;;;;5042078;28;20218;-77
2022/10/26 11:19:12;;;;;;;3.55;1.48;;;22.80;99.90;;;;;;5042465;28;20714;-76
2022/10/26 11:21:39;;;;;;;2.20;1.40;;;22.70;99.90;;;;;;5043169;28;20218;-76
2022/10/26 11:24:15;;;;;;;2.67;1.85;;;22.60;99.90;;;;;;5038822;28;20198;-76
2022/10/26 11:26:47;;;;;;;1.33;1.20;;;22.70;99.90;;;;;;5037038;28;20257;-76
2022/10/26 11:29:27;;;;;;;2.00;1.20;;;23.00;99.90;;;;;;5039836;28;20196;-77
2022/10/26 11:32:01;;;;;;;1.60;1.50;;;23.30;99.90;;;;;;5042695;28;20230;-76
2022/10/26 11:34:36;;;;;;;1.58;1.30;;;23.30;99.90;;;;;;5031315;28;20197;-76
2022/10/26 11:37:11;;;;;;;1.40;1.20;;;23.30;99.90;;;;;;5039547;28;20901;-77
2022/10/26 11:39:45;;;;;;;1.55;1.33;;;23.60;99.90;;;;;;5036393;28;20202;-77
2022/10/26 11:42:24;;;;;;;2.28;1.52;;;23.40;99.90;;;;;;5035831;28;20203;-77
2022/10/26 11:44:57;;;;;;;1.70;1.60;;;23.20;99.90;;;;;;5041124;28;20268;-76
2022/10/26 11:47:33;;;;;;;1.05;1.00;;;23.40;99.90;;;;;;5034073;28;20245;-77
2022/10/26 11:50:06;;;;;;;1.88;1.52;;;23.70;99.90;;;;;;5036695;28;20242;-76
2022/10/26 11:52:40;;;;;;;2.13;1.67;;;23.70;99.90;;;;;;5037444;28;20210;-77
2022/10/26 11:55:11;;;;;;;2.67;1.45;;;23.60;99.90;;;;;;5036787;28;20657;-77
2022/10/26 11:57:39;;;;;;;2.75;1.80;;;23.30;99.90;;;;;;5041236;28;20640;-75
2022/10/26 12:00:15;;;;;;;1.63;1.30;;;23.20;99.90;;;;;;5038528;28;20696;-75
2022/10/26 12:02:46;;;;;;;1.77;1.50;;;23.20;99.90;;;;;;5039955;28;20241;-76
2022/10/26 12:05:21;;;;;;;2.67;1.60;;;23.40;99.90;;;;;;5041376;28;20272;-76
2022/10/26 12:07:52;;;;;;;1.55;1.40;;;23.50;99.90;;;;;;5047844;28;20210;-76
2022/10/26 12:10:26;;;;;;;3.38;1.67;;;23.50;99.90;;;;;;5043422;28;20233;-77
2022/10/26 12:13:03;;;;;;;2.80;1.55;;;23.40;99.90;;;;;;5041381;28;20190;-77
2022/10/26 12:15:36;;;;;;;1.42;1.33;;;23.10;99.90;;;;;;5038355;28;20230;-76
2022/10/26 12:18:13;;;;;;;1.85;1.60;;;22.70;99.90;;;;;;5037837;28;20218;-77
2022/10/26 12:20:54;;;;;;;2.28;1.52;;;22.20;99.90;;;;;;5042146;28;20706;-77
2022/10/26 12:23:22;;;;;;;1.92;1.80;;;21.80;99.90;;;;;;5037444;28;20282;-76
2022/10/26 12:25:49;;;;;;;1.45;1.40;;;21.70;99.90;;;;;;5035676;28;20211;-76
2022/10/26 12:28:40;;;;;;;1.50;1.40;;;21.70;99.90;;;;;;5041658;28;20219;-76
2022/10/26 12:31:43;;;;;;;1.50;1.40;;;22.10;99.90;;;;;;5042631;28;20640;-76
2022/10/26 12:34:53;;;;;;;1.70;1.60;;;22.60;99.90;;;;;;5047003;28;20244;-82
2022/10/26 12:48:00;;;;;;;2.13;1.55;;;22.70;99.90;;;;;;4988613;28;20256;-80
2022/10/26 12:50:29;;;;;;;1.83;1.70;;;22.80;99.90;;;;;;4981805;28;20305;-80
2022/10/26 12:52:58;;;;;;;1.80;1.60;;;22.70;99.90;;;;;;5046848;28;20202;-80
2022/10/26 12:55:56;;;;;;;2.03;1.50;;;22.80;99.90;;;;;;5046707;28;20224;-79
2022/10/26 12:59:02;;;;;;;1.80;1.70;;;22.90;99.90;;;;;;5048222;28;20726;-80
2022/10/26 13:01:57;;;;;;;2.97;1.92;;;23.00;99.90;;;;;;5028966;28;20226;-80
2022/10/26 13:05:06;;;;;;;1.90;1.80;;;22.70;99.90;;;;;;5043673;28;20715;-80
2022/10/26 13:07:37;;;;;;;1.90;1.50;;;22.50;99.90;;;;;;5038769;28;20210;-81
2022/10/26 13:10:16;;;;;;;3.67;1.90;;;22.50;99.90;;;;;;5050103;28;20593;-80
2022/10/26 13:12:49;;;;;;;2.75;1.45;;;22.50;99.90;;;;;;5044191;28;20198;-78
2022/10/26 13:15:22;;;;;;;1.92;1.70;;;22.40;99.90;;;;;;5044145;28;20219;-79
2022/10/26 13:18:02;;;;;;;3.95;1.70;;;22.50;99.90;;;;;;5044841;28;20219;-79
2022/10/26 13:20:31;;;;;;;3.22;1.77;;;22.60;99.90;;;;;;5052130;28;20219;-79